createdAt,value
2019-01-11T00:00:09.147Z,94.35
2019-01-11T00:02:39.771Z,94.52
2019-01-11T00:05:10.672Z,94.41
2019-01-11T00:07:41.076Z,94.52
2019-01-11T00:10:11.861Z,94.51
2019-01-11T00:12:43.852Z,94.08
2019-01-11T00:15:14.606Z,93.95
2019-01-11T00:17:44.910Z,93.90
2019-01-11T00:20:16.217Z,94.06
2019-01-11T00:22:46.716Z,93.96
2019-01-11T00:25:16.950Z,93.69
2019-01-11T00:27:47.497Z,93.42
2019-01-11T00:30:17.803Z,93.51
2019-01-11T00:32:48.373Z,93.21
2019-01-11T00:35:18.578Z,93.36
2019-01-11T00:37:48.742Z,93.67
2019-01-11T00:40:19.367Z,93.70
2019-01-11T00:42:49.806Z,93.54
2019-01-11T00:45:20.282Z,93.28
2019-01-11T00:47:50.720Z,92.89
2019-01-11T00:50:22.968Z,92.93
2019-01-11T00:52:53.572Z,93.20
2019-01-11T00:55:23.885Z,93.26
2019-01-11T00:57:54.308Z,93.11
2019-01-11T01:00:24.655Z,93.14
2019-01-11T01:02:54.900Z,93.02
2019-01-11T01:05:25.826Z,92.84
2019-01-11T01:07:56.460Z,92.60
2019-01-11T01:10:26.843Z,92.74
2019-01-11T01:12:57.456Z,92.61
2019-01-11T01:17:59.284Z,92.60
2019-01-11T01:20:29.521Z,92.37
2019-01-11T01:22:59.688Z,92.03
2019-01-11T01:25:30.415Z,92.16
2019-01-11T01:28:00.683Z,92.11
2019-01-11T01:30:31.421Z,91.93
2019-01-11T01:33:01.626Z,92.21
2019-01-11T01:35:32.130Z,92.47
2019-01-11T01:38:02.384Z,92.81
2019-01-11T01:40:42.177Z,93.31
2019-01-11T01:43:12.299Z,93.23
2019-01-11T01:45:42.640Z,93.18
2019-01-11T01:48:13.250Z,93.20
2019-01-11T01:50:43.599Z,93.27
2019-01-11T01:53:13.834Z,93.64
2019-01-11T01:55:44.374Z,93.91
2019-01-11T01:58:14.579Z,93.79
2019-01-11T02:00:44.829Z,93.42
2019-01-11T02:03:15.561Z,93.14
2019-01-11T02:05:46.071Z,92.94
2019-01-11T02:08:16.551Z,92.89
2019-01-11T02:10:46.752Z,92.93
2019-01-11T02:13:17.187Z,92.75
2019-01-11T02:15:47.505Z,92.74
2019-01-11T02:18:19.081Z,92.69
2019-01-11T02:20:49.399Z,92.40
2019-01-11T02:23:19.613Z,92.30
2019-01-11T02:25:49.941Z,92.17
2019-01-11T02:28:20.489Z,92.03
2019-01-11T02:30:50.611Z,91.83
2019-01-11T02:33:25.103Z,91.68
2019-01-11T02:35:52.689Z,91.52
2019-01-11T02:38:23.218Z,91.31
2019-01-11T02:40:53.633Z,91.33
2019-01-11T02:43:23.770Z,91.41
2019-01-11T02:45:54.241Z,91.02
2019-01-11T02:48:24.490Z,91.21
2019-01-11T02:50:54.503Z,91.49
2019-01-11T02:53:24.623Z,91.65
2019-01-11T02:55:54.905Z,91.43
2019-01-11T02:58:25.346Z,91.43
2019-01-11T03:00:55.641Z,91.41
2019-01-11T03:03:26.063Z,91.09
2019-01-11T03:05:56.626Z,91.01
2019-01-11T03:08:26.760Z,91.26
2019-01-11T03:10:57.404Z,91.18
2019-01-11T03:13:30.143Z,91.19
2019-01-11T03:16:00.425Z,91.47
2019-01-11T03:18:30.631Z,91.69
2019-01-11T03:21:00.746Z,91.79
2019-01-11T03:23:32.310Z,91.82
2019-01-11T03:26:02.860Z,91.70
2019-01-11T03:28:33.210Z,91.87
2019-01-11T03:31:10.842Z,91.59
2019-01-11T03:33:41.225Z,91.69
2019-01-11T03:36:11.458Z,91.73
2019-01-11T03:38:41.505Z,91.51
2019-01-11T03:41:11.701Z,91.62
2019-01-11T03:43:42.129Z,91.63
2019-01-11T03:46:12.590Z,91.66
2019-01-11T03:48:42.895Z,91.67
2019-01-11T03:51:13.752Z,91.51
2019-01-11T03:53:44.295Z,91.63
2019-01-11T03:56:14.603Z,91.83
2019-01-11T03:58:44.751Z,91.64
2019-01-11T04:01:15.304Z,91.37
2019-01-11T04:03:45.543Z,91.22
2019-01-11T04:06:15.815Z,91.34
2019-01-11T04:08:46.629Z,91.33
2019-01-11T04:11:16.800Z,91.38
2019-01-11T04:13:47.274Z,91.64
2019-01-11T04:16:17.389Z,91.36
2019-01-11T04:18:59.328Z,91.33
2019-01-11T04:21:29.560Z,91.11
2019-01-11T04:23:59.863Z,90.99
2019-01-11T04:26:30.535Z,90.99
2019-01-11T04:29:00.639Z,90.86
2019-01-11T04:31:30.866Z,91.05
2019-01-11T04:34:01.657Z,90.85
2019-01-11T04:36:32.084Z,90.97
2019-01-11T04:39:02.282Z,90.97
2019-01-11T04:41:32.595Z,90.61
2019-01-11T04:44:02.844Z,90.72
2019-01-11T04:46:35.540Z,90.61
2019-01-11T04:49:06.054Z,90.31
2019-01-11T04:51:36.397Z,90.16
2019-01-11T04:54:06.612Z,89.88
2019-01-11T04:56:36.836Z,90.12
2019-01-11T04:59:07.303Z,89.91
2019-01-11T05:01:37.406Z,89.65
2019-01-11T05:04:07.699Z,89.73
2019-01-11T05:06:38.150Z,89.71
2019-01-11T05:09:08.836Z,89.68
2019-01-11T05:11:39.701Z,89.86
2019-01-11T05:14:09.897Z,89.46
2019-01-11T05:16:41.638Z,89.48
2019-01-11T05:19:12.260Z,89.65
2019-01-11T05:21:42.390Z,89.55
2019-01-11T05:24:12.413Z,89.26
2019-01-11T05:26:42.732Z,89.13
2019-01-11T05:29:12.953Z,89.23
2019-01-11T05:31:44.284Z,89.58
2019-01-11T05:34:14.511Z,89.67
2019-01-11T05:36:44.510Z,89.43
2019-01-11T05:39:14.812Z,89.68
2019-01-11T05:41:45.433Z,89.90
2019-01-11T05:44:15.452Z,89.99
2019-01-11T05:46:46.649Z,89.75
2019-01-11T05:49:16.733Z,89.75
2019-01-11T05:51:47.173Z,89.60
2019-01-11T05:54:17.447Z,88.99
2019-01-11T05:56:47.577Z,89.00
2019-01-11T05:59:17.652Z,88.90
2019-01-11T06:01:48.052Z,88.80
2019-01-11T06:04:43.579Z,88.71
2019-01-11T06:07:35.935Z,88.29
2019-01-11T06:10:07.797Z,88.39
2019-01-11T06:12:38.102Z,88.60
2019-01-11T06:15:08.663Z,88.33
2019-01-11T06:17:39.154Z,88.29
2019-01-11T06:20:13.174Z,88.26
2019-01-11T06:22:43.469Z,88.08
2019-01-11T06:25:13.712Z,88.22
2019-01-11T06:27:44.127Z,87.72
2019-01-11T06:30:15.297Z,87.86
2019-01-11T06:32:45.660Z,87.52
2019-01-11T06:35:15.865Z,87.42
2019-01-11T06:37:46.792Z,87.42
2019-01-11T06:40:17.386Z,87.26
2019-01-11T06:42:47.432Z,86.93
2019-01-11T06:45:17.767Z,87.07
2019-01-11T06:47:48.398Z,86.91
2019-01-11T06:50:19.129Z,86.84
2019-01-11T06:52:49.591Z,87.04
2019-01-11T06:55:20.688Z,87.00
2019-01-11T06:57:51.086Z,87.00
2019-01-11T07:00:21.453Z,86.75
2019-01-11T07:02:51.783Z,86.92
2019-01-11T07:05:22.308Z,87.09
2019-01-11T07:07:52.422Z,86.93
2019-01-11T07:10:22.930Z,86.86
2019-01-11T07:12:53.622Z,87.09
2019-01-11T07:15:23.651Z,86.99
2019-01-11T07:17:54.251Z,87.06
2019-01-11T07:20:24.633Z,87.06
2019-01-11T07:22:54.679Z,86.96
2019-01-11T07:25:25.134Z,87.24
2019-01-11T07:27:59.640Z,87.24
2019-01-11T07:30:54.742Z,87.03
2019-01-11T07:33:26.977Z,87.07
2019-01-11T07:36:14.766Z,87.05
2019-01-11T07:38:45.221Z,86.86
2019-01-11T07:41:16.477Z,86.91
2019-01-11T07:43:46.781Z,87.07
2019-01-11T07:46:17.222Z,87.02
2019-01-11T07:48:47.558Z,87.00
2019-01-11T07:51:17.862Z,87.10
2019-01-11T07:53:48.304Z,87.00
2019-01-11T07:56:18.803Z,87.09
2019-01-11T07:58:49.207Z,86.83
2019-01-11T08:01:19.329Z,86.78
2019-01-11T08:03:49.470Z,86.81
2019-01-11T08:06:19.942Z,86.59
2019-01-11T08:08:50.597Z,86.59
2019-01-11T08:11:21.001Z,86.25
2019-01-11T08:13:51.403Z,85.90
2019-01-11T08:16:21.666Z,86.00
2019-01-11T08:18:52.116Z,86.06
2019-01-11T08:21:22.424Z,85.49
2019-01-11T08:23:52.671Z,89.45
2019-01-11T08:26:23.276Z,85.68
2019-01-11T08:28:53.874Z,85.72
2019-01-11T08:31:24.305Z,84.77
2019-01-11T08:33:55.813Z,85.35
2019-01-11T08:36:26.235Z,84.32
2019-01-11T08:38:56.397Z,84.32
2019-01-11T08:41:26.728Z,84.12
2019-01-11T08:43:57.244Z,83.57
2019-01-11T08:46:27.393Z,83.18
2019-01-11T08:48:57.428Z,83.06
2019-01-11T08:51:27.803Z,83.29
2019-01-11T08:53:58.375Z,82.09
2019-01-11T08:56:28.522Z,82.25
2019-01-11T08:58:58.698Z,81.60
2019-01-11T09:01:29.179Z,81.24
2019-01-11T09:03:59.635Z,81.23
2019-01-11T09:06:29.724Z,81.16
2019-01-11T09:09:00.243Z,80.51
2019-01-11T09:11:30.496Z,80.37
2019-01-11T09:14:00.708Z,79.32
2019-01-11T09:16:31.052Z,78.27
2019-01-11T09:19:03.687Z,79.23
2019-01-11T09:21:33.916Z,78.64
2019-01-11T09:24:04.541Z,77.92
2019-01-11T09:26:34.716Z,76.92
2019-01-11T09:29:06.062Z,76.49
2019-01-11T09:31:36.290Z,76.49
2019-01-11T09:34:06.460Z,76.72
2019-01-11T09:36:36.574Z,75.58
2019-01-11T09:39:09.800Z,75.98
2019-01-11T09:41:40.335Z,74.62
2019-01-11T09:44:10.598Z,74.25
2019-01-11T09:46:40.735Z,74.38
2019-01-11T09:49:11.144Z,72.47
2019-01-11T09:51:41.723Z,73.64
2019-01-11T09:54:12.168Z,72.81
2019-01-11T09:56:42.563Z,73.95
2019-01-11T09:59:12.669Z,71.24
2019-01-11T10:01:43.243Z,71.12
2019-01-11T10:04:17.239Z,71.19
2019-01-11T10:06:55.927Z,71.66
2019-01-11T10:09:26.494Z,71.82
2019-01-11T10:11:58.282Z,71.19
2019-01-11T10:14:28.738Z,70.04
2019-01-11T10:16:59.364Z,69.41
2019-01-11T10:19:29.481Z,69.50
2019-01-11T10:21:59.764Z,77.15
2019-01-11T10:24:30.112Z,69.93
2019-01-11T10:27:00.132Z,69.00
2019-01-11T10:29:30.356Z,68.06
2019-01-11T10:32:00.637Z,68.73
2019-01-11T10:34:30.756Z,68.71
2019-01-11T10:37:01.382Z,69.70
2019-01-11T10:39:31.591Z,69.80
2019-01-11T10:42:01.707Z,70.19
2019-01-11T10:44:31.994Z,69.66
2019-01-11T10:47:02.337Z,69.76
2019-01-11T10:49:32.451Z,69.47
2019-01-11T10:52:02.698Z,70.18
2019-01-11T10:54:43.478Z,69.84
2019-01-11T10:57:13.767Z,69.73
2019-01-11T10:59:44.299Z,70.54
2019-01-11T11:02:14.770Z,70.54
2019-01-11T11:04:45.433Z,69.88
2019-01-11T11:07:15.748Z,70.20
2019-01-11T11:09:46.273Z,69.19
2019-01-11T11:12:16.741Z,67.19
2019-01-11T11:14:47.250Z,68.19
2019-01-11T11:17:17.387Z,66.77
2019-01-11T11:19:47.520Z,65.59
2019-01-11T11:22:17.772Z,66.33
2019-01-11T11:24:48.236Z,67.79
2019-01-11T11:27:18.504Z,68.04
2019-01-11T11:29:48.685Z,67.58
2019-01-11T11:32:22.177Z,67.13
2019-01-11T11:34:52.186Z,67.13
2019-01-11T11:37:24.057Z,68.17
2019-01-11T11:39:54.523Z,67.50
2019-01-11T11:42:24.846Z,68.10
2019-01-11T11:44:55.274Z,67.73
2019-01-11T11:47:25.679Z,67.41
2019-01-11T11:49:56.119Z,67.57
2019-01-11T11:52:26.247Z,68.45
2019-01-11T11:54:56.542Z,66.92
2019-01-11T11:57:26.589Z,66.96
2019-01-11T11:59:56.947Z,66.56
2019-01-11T12:02:27.337Z,67.48
2019-01-11T12:04:57.429Z,67.26
2019-01-11T12:07:27.647Z,67.20
2019-01-11T12:09:58.092Z,66.31
2019-01-11T12:12:28.469Z,65.86
2019-01-11T12:14:58.695Z,67.15
2019-01-11T12:17:29.285Z,67.72
2019-01-11T12:20:00.284Z,67.48
2019-01-11T12:22:30.677Z,67.28
2019-01-11T12:25:01.046Z,66.39
2019-01-11T12:27:31.369Z,66.39
2019-01-11T12:30:01.519Z,65.61
2019-01-11T12:32:31.810Z,66.76
2019-01-11T12:35:02.242Z,66.64
2019-01-11T12:37:32.570Z,66.54
2019-01-11T12:40:02.747Z,66.43
2019-01-11T12:42:33.201Z,67.10
2019-01-11T12:45:03.837Z,68.33
2019-01-11T12:47:34.185Z,68.33
2019-01-11T12:50:05.218Z,69.19
2019-01-11T12:52:35.665Z,68.05
2019-01-11T12:55:06.648Z,68.31
2019-01-11T12:57:37.232Z,68.36
2019-01-11T13:00:09.442Z,67.91
2019-01-11T13:02:39.791Z,67.76
2019-01-11T13:05:12.567Z,66.49
2019-01-11T13:07:42.920Z,66.58
2019-01-11T13:10:15.286Z,66.08
2019-01-11T13:12:45.541Z,66.78
2019-01-11T13:15:17.844Z,66.41
2019-01-11T13:17:48.360Z,67.33
2019-01-11T13:20:19.521Z,67.33
2019-01-11T13:22:50.056Z,67.22
2019-01-11T13:25:20.662Z,67.73
2019-01-11T13:27:53.919Z,67.56
2019-01-11T13:30:24.493Z,67.09
2019-01-11T13:32:54.767Z,68.04
2019-01-11T13:35:26.197Z,68.12
2019-01-11T13:37:56.484Z,68.29
2019-01-11T13:40:27.094Z,68.02
2019-01-11T13:42:57.536Z,67.72
2019-01-11T13:45:27.921Z,67.75
2019-01-11T13:47:58.444Z,68.29
2019-01-11T13:50:42.488Z,68.21
2019-01-11T13:53:14.557Z,68.46
2019-01-11T13:55:44.749Z,68.82
2019-01-11T13:58:15.287Z,67.93
2019-01-11T14:00:45.871Z,68.70
2019-01-11T14:03:16.670Z,69.02
2019-01-11T14:05:47.114Z,69.37
2019-01-11T14:08:17.690Z,70.63
2019-01-11T14:10:48.321Z,69.84
2019-01-11T14:13:18.571Z,69.71
2019-01-11T14:15:48.860Z,69.97
2019-01-11T14:18:20.724Z,70.06
2019-01-11T14:20:51.269Z,70.97
2019-01-11T14:23:21.439Z,70.21
2019-01-11T14:25:51.684Z,70.32
2019-01-11T14:28:22.265Z,70.34
2019-01-11T14:30:52.677Z,70.40
2019-01-11T14:33:22.922Z,70.34
2019-01-11T14:35:53.789Z,70.84
2019-01-11T14:38:24.181Z,71.77
2019-01-11T14:40:54.353Z,71.55
2019-01-11T14:43:24.577Z,71.97
2019-01-11T14:45:54.651Z,71.71
2019-01-11T14:48:25.175Z,72.23
2019-01-11T14:50:55.740Z,72.68
2019-01-11T14:53:26.239Z,72.82
2019-01-11T14:55:56.411Z,72.82
2019-01-11T14:58:28.889Z,73.39
2019-01-11T15:00:58.594Z,73.35
2019-01-11T15:03:28.829Z,74.13
2019-01-11T15:05:59.362Z,74.60
2019-01-11T15:08:31.842Z,75.10
2019-01-11T15:11:02.138Z,75.29
2019-01-11T15:13:32.414Z,75.87
2019-01-11T15:16:02.583Z,75.76
2019-01-11T15:18:32.826Z,76.44
2019-01-11T15:21:03.273Z,76.58
2019-01-11T15:23:33.629Z,77.21
2019-01-11T15:26:03.857Z,78.01
2019-01-11T15:28:35.637Z,78.46
2019-01-11T15:31:05.872Z,79.35
2019-01-11T15:33:36.211Z,79.83
2019-01-11T15:36:06.750Z,79.72
2019-01-11T15:38:37.314Z,80.28
2019-01-11T15:41:07.553Z,81.17
2019-01-11T15:43:37.766Z,80.81
2019-01-11T15:46:14.903Z,80.99
2019-01-11T15:48:47.080Z,81.86
2019-01-11T15:51:19.656Z,81.07
2019-01-11T15:53:50.278Z,82.38
2019-01-11T15:56:29.567Z,82.42
2019-01-11T15:59:00.619Z,82.76
2019-01-11T16:01:31.226Z,84.25
2019-01-11T16:04:07.037Z,83.58
2019-01-11T16:06:39.375Z,83.24
2019-01-11T16:10:16.314Z,83.18
2019-01-11T16:13:08.669Z,83.95
2019-01-11T16:15:57.260Z,85.80
2019-01-11T16:18:29.969Z,86.63
2019-01-11T16:21:00.669Z,86.39
2019-01-11T16:23:32.322Z,87.00
2019-01-11T16:26:02.528Z,86.31
2019-01-11T16:28:32.571Z,87.21
2019-01-11T16:31:02.701Z,87.57
2019-01-11T16:33:32.843Z,87.76
2019-01-11T16:36:03.252Z,86.44
2019-01-11T16:38:33.493Z,86.47
2019-01-11T16:41:03.777Z,87.38
2019-01-11T16:43:34.315Z,87.83
2019-01-11T16:46:04.485Z,88.31
2019-01-11T16:48:34.711Z,88.53
2019-01-11T16:51:05.673Z,88.92
2019-01-11T16:53:36.220Z,89.45
2019-01-11T16:56:06.765Z,88.77
2019-01-11T16:58:37.306Z,89.13
2019-01-11T17:01:07.561Z,89.63
2019-01-11T17:03:37.826Z,88.75
2019-01-11T17:06:09.099Z,89.73
2019-01-11T17:08:39.511Z,90.06
2019-01-11T17:11:09.901Z,89.14
2019-01-11T17:13:40.859Z,89.26
2019-01-11T17:16:11.419Z,90.38
2019-01-11T17:18:41.976Z,90.67
2019-01-11T17:21:12.388Z,91.05
2019-01-11T17:23:42.520Z,91.82
2019-01-11T17:26:12.740Z,91.61
2019-01-11T17:28:43.324Z,91.23
2019-01-11T17:31:13.582Z,91.24
2019-01-11T17:33:43.836Z,91.16
2019-01-11T17:36:14.781Z,91.13
2019-01-11T17:38:46.528Z,91.45
2019-01-11T17:41:16.919Z,91.16
2019-01-11T17:43:49.642Z,91.35
2019-01-11T17:46:20.423Z,91.29
2019-01-11T17:48:50.783Z,91.81
2019-01-11T17:51:22.443Z,92.10
2019-01-11T17:53:52.640Z,91.84
2019-01-11T17:56:24.807Z,92.10
2019-01-11T17:58:56.749Z,93.41
2019-01-11T18:01:27.983Z,92.77
2019-01-11T18:03:58.454Z,92.77
2019-01-11T18:06:28.960Z,92.64
2019-01-11T18:08:59.433Z,92.69
2019-01-11T18:11:29.837Z,92.61
2019-01-11T18:14:00.139Z,93.07
2019-01-11T18:16:30.544Z,93.08
2019-01-11T18:19:00.908Z,93.19
2019-01-11T18:21:31.346Z,93.28
2019-01-11T18:24:01.570Z,93.60
2019-01-11T18:26:31.727Z,93.83
2019-01-11T18:29:02.278Z,93.82
2019-01-11T18:31:32.577Z,94.50
2019-01-11T18:34:04.490Z,94.88
2019-01-11T18:36:34.690Z,95.23
2019-01-11T18:39:06.296Z,95.52
2019-01-11T18:41:37.031Z,95.56
2019-01-11T18:44:07.492Z,95.56
2019-01-11T18:46:41.604Z,95.44
2019-01-11T18:49:12.139Z,95.69
2019-01-11T18:51:42.639Z,95.89
2019-01-11T18:54:12.842Z,95.93
2019-01-11T18:56:43.459Z,95.65
2019-01-11T18:59:13.837Z,95.67
2019-01-11T19:01:44.335Z,96.33
2019-01-11T19:04:34.875Z,96.73
2019-01-11T19:07:06.830Z,96.29
2019-01-11T19:09:37.426Z,97.25
2019-01-11T19:12:07.944Z,97.25
2019-01-11T19:14:38.424Z,97.09
2019-01-11T19:17:10.881Z,96.68
2019-01-11T19:19:42.119Z,96.37
2019-01-11T19:22:12.371Z,96.35
2019-01-11T19:24:42.689Z,96.85
2019-01-11T19:27:13.064Z,97.03
2019-01-11T19:29:43.526Z,97.03
2019-01-11T19:32:13.678Z,97.12
2019-01-11T19:34:44.168Z,97.09
2019-01-11T19:37:14.540Z,96.89
2019-01-11T19:39:44.841Z,97.26
2019-01-11T19:42:15.416Z,96.94
2019-01-11T19:44:45.699Z,97.11
2019-01-11T19:47:17.136Z,97.38
2019-01-11T19:49:47.905Z,97.76
2019-01-11T19:52:18.533Z,97.97
2019-01-11T19:54:48.848Z,98.32
2019-01-11T19:57:19.374Z,98.70
2019-01-11T19:59:49.756Z,98.92
2019-01-11T20:02:20.074Z,99.70
2019-01-11T20:04:50.548Z,100.00
2019-01-11T20:07:20.834Z,99.87
2019-01-11T20:09:51.582Z,99.84
2019-01-11T20:12:22.043Z,100.00
2019-01-11T20:14:52.471Z,100.00
2019-01-11T20:17:22.817Z,100.00
2019-01-11T20:19:59.416Z,100.00
2019-01-11T20:22:29.758Z,99.40
2019-01-11T20:25:02.599Z,99.15
2019-01-11T20:27:32.917Z,98.90
2019-01-11T20:30:03.355Z,98.87
2019-01-11T20:32:33.649Z,98.96
2019-01-11T20:35:05.268Z,99.08
2019-01-11T20:37:35.522Z,99.23
2019-01-11T20:40:09.293Z,99.40
2019-01-11T20:42:41.108Z,99.28
2019-01-11T20:45:13.831Z,99.48
2019-01-11T20:47:44.437Z,99.54
2019-01-11T20:50:17.465Z,99.61
2019-01-11T20:52:47.766Z,100.00
2019-01-11T20:55:18.891Z,100.00
2019-01-11T20:57:49.536Z,100.00
2019-01-11T21:00:29.233Z,99.87
2019-01-11T21:02:59.726Z,98.86
2019-01-11T21:05:30.577Z,98.30
2019-01-11T21:08:00.905Z,98.34
2019-01-11T21:10:31.499Z,98.69
2019-01-11T21:13:01.830Z,98.69
2019-01-11T21:15:32.412Z,98.60
2019-01-11T21:18:02.704Z,98.93
2019-01-11T21:20:33.915Z,99.53
2019-01-11T21:23:04.483Z,99.53
2019-01-11T21:25:34.783Z,99.98
2019-01-11T21:28:05.436Z,100.00
2019-01-11T21:30:35.721Z,100.00
2019-01-11T21:33:06.100Z,100.00
2019-01-11T21:35:36.505Z,100.00
2019-01-11T21:38:07.288Z,100.00
2019-01-11T21:40:37.568Z,100.00
2019-01-11T21:43:08.348Z,100.00
2019-01-11T21:45:38.600Z,100.00
2019-01-11T21:48:08.873Z,100.00
2019-01-11T21:50:39.625Z,100.00
2019-01-11T21:53:09.881Z,100.00
2019-01-11T21:55:40.507Z,100.00
2019-01-11T21:58:10.793Z,100.00
2019-01-11T22:00:46.869Z,100.00
2019-01-11T22:03:22.193Z,100.00
2019-01-11T22:05:52.598Z,100.00
2019-01-11T22:08:23.221Z,100.00
2019-01-11T22:10:53.699Z,100.00
2019-01-11T22:13:24.110Z,100.00
2019-01-11T22:15:54.702Z,100.00
2019-01-11T22:18:25.310Z,100.00
2019-01-11T22:20:55.810Z,100.00
2019-01-11T22:23:30.814Z,100.00
2019-01-11T22:26:01.823Z,100.00
2019-01-11T22:28:32.524Z,100.00
2019-01-11T22:31:02.685Z,100.00
2019-01-11T22:33:33.278Z,99.68
2019-01-11T22:36:03.621Z,100.00
2019-01-11T22:38:33.895Z,100.00
2019-01-11T22:41:04.456Z,100.00
2019-01-11T22:43:34.761Z,100.00
2019-01-11T22:46:06.697Z,100.00
2019-01-11T22:48:37.177Z,100.00
2019-01-11T22:51:07.484Z,100.00
2019-01-11T22:53:37.577Z,100.00
2019-01-11T22:56:07.806Z,100.00
2019-01-11T22:58:38.242Z,100.00
2019-01-11T23:01:34.771Z,100.00
2019-01-11T23:04:05.595Z,100.00
2019-01-11T23:06:54.896Z,100.00
2019-01-11T23:09:28.697Z,100.00
2019-01-11T23:12:19.380Z,100.00
2019-01-11T23:14:49.884Z,100.00
2019-01-11T23:17:41.437Z,100.00
2019-01-11T23:20:14.064Z,100.00
2019-01-11T23:22:44.737Z,100.00
2019-01-11T23:25:16.592Z,100.00
2019-01-11T23:27:46.913Z,100.00
2019-01-11T23:30:18.902Z,100.00
2019-01-11T23:32:49.491Z,100.00
2019-01-11T23:35:19.822Z,100.00
2019-01-11T23:37:50.222Z,100.00
2019-01-11T23:40:20.675Z,100.00
2019-01-11T23:42:51.330Z,100.00
2019-01-11T23:45:21.509Z,100.00
2019-01-11T23:47:51.654Z,100.00
2019-01-11T23:50:21.987Z,100.00
2019-01-11T23:52:52.524Z,100.00
2019-01-11T23:55:22.696Z,100.00
2019-01-11T23:57:53.275Z,100.00
